Tiempo atmosférico en la estación meteorológica de Lalastra, Araba/Álava (910 m.)



Fecha
DESCASC
Temp. máxima en grados centígrados (hora)
DESCASC
Temp. mínima en grados centígrados (hora)
DESCASC
Temp. media en grados centígrados
DESCASC
Racha de viento máxima en m/sg (hora)
DESCASC
Velocidad máxima media en intervalos de 10 minutos(hora)
DESCASC
Precipitaciones diarias en mm
DESCASC
Precipitaciones de 00:00 a 06:00 en mm
DESCASC
Precipitaciones de 06:00 a 12:00 en mm
DESCASC
Precipitaciones de 12:00 a 18:00 en mm
DESCASC
Precipitaciones de 18:00 a 24:00 en mm
DESCASC
20-02-2020 15.4 (15:50) -0.5 (00:30) 7.4 12.5 (09:20) 6.67 (08:50) 0 0 0 0 0
19-02-2020 11.9 (16:20) -3.3 (-00:0) 4.3 4.72 (13:30) 2.78 (15:00) 0 0 0 0 0
18-02-2020 7.3 (14:20) -1.8 (23:50) 2.8 5.56 (16:20) 2.78 (17:00) 0 0 0 0 0
17-02-2020 10.4 (00:00) 2.4 (23:59) 6.4 16.67 (04:00) 8.89 (02:20) 1.4 0 1.4 0 0
16-02-2020 11.9 (17:20) 7.5 (00:00) 9.7 20 (06:20) 10 (09:20) 0 0 0 0 0
15-02-2020 12 (15:10) 1.7 (00:00) 6.9 15.83 (15:30) 7.78 (13:20) 0 0 0 0 0
14-02-2020 13.8 (15:10) 2.2 (00:00) 8 4.44 (05:10) 2.22 (05:20) 0 0 0 0 0
13-02-2020 12.1 (17:20) 7.2 (00:00) 9.7 11.67 (10:00) 6.39 (07:30) 0 0 0 0 0
12-02-2020 9.9 (16:20) 3.3 (00:00) 6.6 6.67 (23:59) 3.89 (23:59) 0 0 0 0 0
11-02-2020 10.5 (15:00) 6.4 (00:00) 8.5 11.94 (02:30) 6.67 (02:30) 0.2 0 0 0 0.2
10-02-2020 14.1 (14:30) 8.9 (00:00) 11.5 16.11 (11:40) 8.89 (12:20) 0 0 0 0 0
09-02-2020 9.6 (22:30) 5.2 (00:00) 7.4 16.67 (23:50) 9.17 (23:50) 0 0 0 0 0
08-02-2020 7.6 (01:40) 4.9 (00:00) 6.3 10 (00:20) 5 (00:40) 1.2 0 0.2 1 0
07-02-2020 10.5 (14:20) -0.2 (00:00) 5.1 11.39 (17:50) 5.56 (23:59) 0 0 0 0 0
06-02-2020 11.7 (16:10) -2.1 (-00:0) 4.8 6.94 (11:10) 3.89 (14:40) 0 0 0 0 0
05-02-2020 8.2 (14:30) -1.1 (-00:0) 3.5 6.67 (08:40) 2.5 (12:50) 0 0 0 0 0
04-02-2020 9.8 (11:30) 2.8 (00:00) 6.3 8.33 (23:00) 3.61 (23:30) 0 0 0 0 0
03-02-2020 18.9 (16:20) 4.6 (08:00) 11.7 10 (14:30) 5.28 (11:40) 0 0 0 0 0
02-02-2020 15.1 (15:50) 10.2 (00:00) 12.7 15.83 (11:30) 8.89 (08:50) 0 0 0 0 0
01-02-2020 14.6 (14:20) 8.2 (00:00) 11.4 12.5 (00:30) 5.83 (00:30) 2.8 2.8 0 0 0
31-01-2020 12.9 (14:10) 7.9 (00:00) 10.4 15.28 (17:20) 8.61 (17:20) 0 0 0 0 0
30-01-2020 10.3 (13:00) 7.4 (00:00) 8.9 17.22 (12:50) 9.17 (11:10) 1.4 1.4 0 0 0
29-01-2020 10.3 (13:30) 3.9 (00:00) 7.1 11.39 (23:00) 5.56 (19:20) 3.6 0 0 2.6 1
28-01-2020 12.2 (16:30) 1.6 (00:00) 6.9 11.94 (02:00) 5.28 (07:20) 0 0 0 0 0
27-01-2020 8.5 (19:30) 4.1 (00:00) 6.3 16.39 (04:30) 8.61 (01:00) 0 0 0 0 0
26-01-2020 5.8 (14:00) -2.2 (-00:0) 1.8 15.83 (21:10) 9.44 (23:40) 0 0 0 0 0
25-01-2020 6 (16:00) 1.7 (00:00) 3.9 3.89 (13:30) 2.5 (13:30) 2.2 0 0 0 2.2
24-01-2020 5.8 (16:20) 1.1 (00:00) 3.5 5.83 (10:20) 3.33 (10:20) 0 0 0 0 0
23-01-2020 5.8 (16:00) -0.7 (-00:0) 2.6 3.89 (16:30) 2.5 (16:30) 0 0 0 0 0
22-01-2020 6.9 (15:30) 1.3 (00:00) 4.1 7.78 (00:40) 3.06 (17:30) 0 0 0 0 0

Gráficas

Temp. máximas Temp. mínimas Temp. medias Precipitaciones Rachas de viento máximas Velocidades máximas media en intervalos de 10 minutos

Datos horarios

Fecha y hora oficial Temperatura (ºC) Velocidad del viento (km/h) Dirección del viento Racha (km/h) Dirección de racha Precipitación (mm) Presión (hPa) Tendencia (hPa) Humedad (%)
2020-02-20 23:00:00 3.8 2 Oeste 24 Este 0 -- -- 89
2020-02-20 22:00:00 5.2 13 Nordeste 32 Nordeste 0 -- -- 90
2020-02-20 21:00:00 5.7 15 Nordeste 39 Norte 0 -- -- 91
2020-02-20 20:00:00 5.5 3 Sur 8 Norte 0 -- -- 81
2020-02-20 19:00:00 8.4 0 Calma 15 Este 0 -- -- 72
2020-02-20 18:00:00 11.7 7 Nordeste 23 Este 0 -- -- 65
2020-02-20 17:00:00 14.5 6 Este 16 Este 0 -- -- 40
2020-02-20 16:00:00 15.1 7 Este 13 Este 0 -- -- 44
2020-02-20 15:00:00 14.4 4 Sudoeste 16 Oeste 0 -- -- 44
2020-02-20 14:00:00 13.8 8 Oeste 17 Oeste 0 -- -- 49
2020-02-20 13:00:00 12.2 4 Oeste 22 Sur 0 -- -- 50
2020-02-20 12:00:00 10.5 6 Sur 34 Sudoeste 0 -- -- 53
2020-02-20 11:00:00 8.6 20 Sudoeste 42 Sudoeste 0 -- -- 56
2020-02-20 10:00:00 7 23 Sudoeste 45 Sur 0 -- -- 60
2020-02-20 09:00:00 5.4 22 Sudoeste 42 Sudoeste 0 -- -- 65
2020-02-20 08:00:00 4.6 22 Sudoeste 36 Sudoeste 0 -- -- 66
2020-02-20 07:00:00 4.3 9 Oeste 27 Sur 0 -- -- 66
2020-02-20 06:00:00 5 13 Sudoeste 34 Sudoeste 0 -- -- 67
2020-02-20 05:00:00 5.5 19 Sudoeste 39 Sur 0 -- -- 64
2020-02-20 04:00:00 5.2 18 Sudoeste 33 Sudoeste 0 -- -- 64
2020-02-20 03:00:00 5 15 Sudoeste 32 Sur 0 -- -- 64
2020-02-20 02:00:00 2.9 13 Sudoeste 24 Sur 0 -- -- 67
2020-02-20 01:00:00 -0.4 3 Nordeste 7 Nordeste 0 -- -- 89
2020-02-20 00:00:00 0.1 2 Nordeste 6 Este 0 -- -- 88
2020-02-19 23:00:00 0.7 2 Norte 6 Norte 0 -- -- 86
2020-02-19 22:00:00 1.3 2 Norte 8 Nordeste 0 -- -- 84
2020-02-19 21:00:00 1.7 0 Calma 6 Este 0 -- -- 83
2020-02-19 20:00:00 3.6 4 Este 9 Nordeste 0 -- -- 80
2020-02-19 19:00:00 6 3 Nordeste 8 Nordeste 0 -- -- 71
2020-02-19 18:00:00 10.5 0 Calma 9 Sudoeste 0 -- -- 58
2020-02-19 17:00:00 11.6 2 Oeste 10 Oeste 0 -- -- 52
2020-02-19 16:00:00 11.7 6 Sudoeste 15 Sudoeste 0 -- -- 48
2020-02-19 15:00:00 10.3 10 Sudoeste 15 Sur 0 -- -- 54
2020-02-19 14:00:00 9.4 8 Sur 17 Sur 0 -- -- 64
2020-02-19 13:00:00 8.2 6 Oeste 15 Sudoeste 0 -- -- 69
2020-02-19 12:00:00 7 3 Oeste 9 Sur 0 -- -- 70
2020-02-19 11:00:00 5.8 5 Sur 9 Sudeste 0 -- -- 79
2020-02-19 10:00:00 1.6 2 Oeste 8 Norte 0 -- -- 97
2020-02-19 09:00:00 -2.3 0 Calma 7 Nordeste 0 -- -- 98
2020-02-19 08:00:00 -3.2 0 Calma 6 Este 0 -- -- 98
2020-02-19 07:00:00 -3 0 Calma 8 Nordeste 0 -- -- 97
2020-02-19 06:00:00 -2.9 0 Calma 5 Este 0 -- -- 98
2020-02-19 05:00:00 -2.6 3 Este 5 Nordeste 0 -- -- 97
2020-02-19 04:00:00 -2.6 3 Este 5 Este 0 -- -- 97
2020-02-19 03:00:00 -2.3 3 Nordeste 6 Este 0 -- -- 97
2020-02-19 02:00:00 -2.1 3 Nordeste 5 Nordeste 0 -- -- 97
2020-02-19 01:00:00 -1.9 0 Calma 6 Nordeste 0 -- -- 95
2020-02-19 00:00:00 -1.8 2 Nordeste 6 Sudeste 0 -- -- 96
2020-02-18 23:00:00 -1.3 2 Nordeste 6 Nordeste 0 -- -- 94
2020-02-18 22:00:00 -0.3 0 Calma 5 Sudeste 0 -- -- 91
2020-02-18 21:00:00 1 2 Noroeste 11 Nordeste 0 -- -- 88
2020-02-18 20:00:00 3 8 Nordeste 17 Nordeste 0 -- -- 86
2020-02-18 19:00:00 3.7 6 Nordeste 17 Nordeste 0 -- -- 81
2020-02-18 18:00:00 5.3 10 Norte 20 Norte 0 -- -- 69
2020-02-18 17:00:00 5.7 10 Nordeste 20 Noroeste 0 -- -- 69
2020-02-18 16:00:00 6.3 8 Nordeste 18 Nordeste 0 -- -- 75
2020-02-18 15:00:00 6.6 6 Nordeste 15 Norte 0 -- -- 74
2020-02-18 14:00:00 6.9 2 Norte 18 Nordeste 0 -- -- 64
2020-02-18 13:00:00 6.2 6 Nordeste 16 Norte 0 -- -- 74
2020-02-18 12:00:00 5.1 3 Oeste 19 Noroeste 0 -- -- 85
2020-02-18 11:00:00 4.3 4 Norte 17 Noroeste 0 -- -- 81
2020-02-18 10:00:00 3 2 Noroeste 4 Oeste 0 -- -- 96
2020-02-18 09:00:00 1.5 3 Sudeste 6 Este 0 -- -- 97
2020-02-18 08:00:00 1.1 0 Calma 5 Nordeste 0 -- -- 98
2020-02-18 07:00:00 0.9 0 Calma 6 Noroeste 0 -- -- 97
2020-02-18 06:00:00 1.1 0 Calma 4 Sudeste 0 -- -- 96
2020-02-18 05:00:00 2.2 2 Nordeste 4 Sudoeste 0 -- -- 95
2020-02-18 04:00:00 2.5 0 Calma 4 Norte 0 -- -- 95
2020-02-18 03:00:00 2.5 2 Oeste 5 Sudeste 0 -- -- 95
2020-02-18 02:00:00 2.5 0 Calma 8 Nordeste 0 -- -- 94
2020-02-18 01:00:00 2 0 Calma 6 Norte 0 -- -- 94
2020-02-18 00:00:00 2.4 0 Calma 10 Norte 0 -- -- 92
2020-02-17 23:00:00 3.4 5 Norte 19 Nordeste 0 -- -- 93
2020-02-17 22:00:00 3.8 8 Nordeste 16 Este 0 -- -- 91
2020-02-17 21:00:00 3.9 4 Nordeste 20 Este 0 -- -- 93
2020-02-17 20:00:00 4.2 7 Nordeste 17 Nordeste 0 -- -- 92
2020-02-17 19:00:00 4.5 5 Nordeste 19 Este 0 -- -- 93
2020-02-17 18:00:00 5.2 9 Nordeste 23 Norte 0 -- -- 90
2020-02-17 17:00:00 6.4 7 Norte 19 Norte 0 -- -- 87
2020-02-17 16:00:00 6.9 10 Noroeste 20 Norte 0 -- -- 87
2020-02-17 15:00:00 7.2 9 Norte 20 Norte 0 -- -- 89
2020-02-17 14:00:00 6.6 5 Noroeste 17 Noroeste 0 -- -- 92
2020-02-17 13:00:00 6.9 6 Norte 15 Norte 0 -- -- 92
2020-02-17 12:00:00 6.8 6 Noroeste 15 Nordeste 0.2 -- -- 94
2020-02-17 11:00:00 6.1 8 Nordeste 17 Nordeste 0.4 -- -- 95
2020-02-17 10:00:00 6.5 5 Noroeste 15 Nordeste 0.4 -- -- 95
2020-02-17 09:00:00 6.9 7 Norte 24 Oeste 0.4 -- -- 94
2020-02-17 08:00:00 9.1 10 Noroeste 29 Noroeste 0 -- -- 94
2020-02-17 07:00:00 9.3 11 Sudoeste 32 Sur 0 -- -- 89
2020-02-17 06:00:00 9.3 20 Sudoeste 51 Sur 0 -- -- 89
2020-02-17 05:00:00 9.3 31 Sudoeste 54 Sur 0 -- -- 89
2020-02-17 04:00:00 9.5 24 Sudoeste 60 Sudoeste 0 -- -- 88
2020-02-17 03:00:00 10 24 Sudoeste 56 Sudeste 0 -- -- 81
2020-02-17 02:00:00 10.2 24 Sur 51 Sudoeste 0 -- -- 80
2020-02-17 01:00:00 10.4 17 Norte 42 Norte 0 -- -- 79
2020-02-17 00:00:00 10.4 7 Este 29 Oeste 0 -- -- 80
2020-02-16 23:00:00 10.7 6 Sudoeste 45 Oeste 0 -- -- 79
2020-02-16 22:00:00 10.9 24 Sudoeste 51 Sur 0 -- -- 77
2020-02-16 21:00:00 11 13 Sur 32 Sur 0 -- -- 76
2020-02-16 20:00:00 11.1 7 Oeste 37 Noroeste 0 -- -- 77
2020-02-16 19:00:00 11.2 6 Este 51 Oeste 0 -- -- 75
2020-02-16 18:00:00 11.8 14 Noroeste 53 Sur 0 -- -- 72
2020-02-16 17:00:00 11.7 23 Sur 48 Sudeste 0 -- -- 75
2020-02-16 16:00:00 10.9 9 Sudeste 32 Sur 0 -- -- 75
2020-02-16 15:00:00 10.5 18 Sur 40 Sudoeste 0 -- -- 76
2020-02-16 14:00:00 9.9 21 Sur 48 Sudoeste 0 -- -- 80
2020-02-16 13:00:00 9.6 30 Sudoeste 52 Sudoeste 0 -- -- 81
2020-02-16 12:00:00 8.8 26 Sudoeste 42 Sudoeste 0 -- -- 85
2020-02-16 11:00:00 7.8 18 Sudoeste 50 Sudoeste 0 -- -- 87
2020-02-16 10:00:00 7.6 27 Sudoeste 62 Sudoeste 0 -- -- 89
2020-02-16 09:00:00 7.6 32 Sudoeste 58 Sudoeste 0 -- -- 87
2020-02-16 08:00:00 8.2 28 Sudoeste 61 Sur 0 -- -- 85
2020-02-16 07:00:00 8.2 34 Sudoeste 72 Sur 0 -- -- 86
2020-02-16 06:00:00 8.4 26 Sudoeste 69 Sur 0 -- -- 86
2020-02-16 05:00:00 8.7 25 Sudoeste 46 Sudoeste 0 -- -- 84
2020-02-16 04:00:00 8.8 28 Sudoeste 48 Sudoeste 0 -- -- 85
2020-02-16 03:00:00 9.1 19 Sur 45 Sur 0 -- -- 83
2020-02-16 02:00:00 9 13 Sudoeste 45 Sur 0 -- -- 85
2020-02-16 01:00:00 9.2 19 Sur 49 Sudoeste 0 -- -- 84
2020-02-16 00:00:00 9.1 4 Sudoeste 29 Sudoeste 0 -- -- 84
2020-02-15 23:00:00 9 17 Sudoeste 41 Sudoeste 0 -- -- 84
2020-02-15 22:00:00 9.1 18 Sudoeste 45 Sur 0 -- -- 84
2020-02-15 21:00:00 9.2 19 Sudoeste 38 Sudoeste 0 -- -- 84
2020-02-15 20:00:00 9.5 19 Sudoeste 35 Sudoeste 0 -- -- 80
2020-02-15 19:00:00 10.4 21 Sudoeste 44 Sudoeste 0 -- -- 76
2020-02-15 18:00:00 10.9 17 Sur 41 Sur 0 -- -- 73
2020-02-15 17:00:00 10.9 16 Sur 51 Sudoeste 0 -- -- 74
2020-02-15 16:00:00 11 26 Sudoeste 57 Sudoeste 0 -- -- 72
2020-02-15 15:00:00 11.9 13 Sudoeste 42 Sudoeste 0 -- -- 69
2020-02-15 14:00:00 11.2 19 Sur 51 Sur 0 -- -- 73
2020-02-15 13:00:00 11.6 25 Sudoeste 44 Sudoeste 0 -- -- 74
2020-02-15 12:00:00 10.4 23 Sudoeste 41 Sudoeste 0 -- -- 78
2020-02-15 11:00:00 8.9 15 Sudoeste 43 Sur 0 -- -- 83
2020-02-15 10:00:00 7.2 23 Sudoeste 42 Sudoeste 0 -- -- 86
2020-02-15 09:00:00 5.4 25 Sudoeste 40 Sudoeste 0 -- -- 93
2020-02-15 08:00:00 5.3 18 Sudoeste 45 Sudoeste 0 -- -- 93
2020-02-15 07:00:00 5.4 19 Sudoeste 37 Sudoeste 0 -- -- 94
2020-02-15 06:00:00 5.6 21 Sudoeste 39 Sur 0 -- -- 94
2020-02-15 05:00:00 5.6 22 Sudoeste 40 Sudoeste 0 -- -- 94
2020-02-15 04:00:00 5.8 21 Sudoeste 35 Sudoeste 0 -- -- 91
2020-02-15 03:00:00 6 17 Sudoeste 34 Sudoeste 0 -- -- 90
2020-02-15 02:00:00 5.7 17 Sudoeste 32 Sudoeste 0 -- -- 92
2020-02-15 01:00:00 2 4 Sur 12 Sur 0 -- -- 99
2020-02-15 00:00:00 2.2 3 Sudeste 6 Nordeste 0 -- -- 97
2020-02-14 23:00:00 3 2 Nordeste 5 Nordeste 0 -- -- 96
2020-02-14 22:00:00 3.9 4 Este 7 Norte 0 -- -- 95
2020-02-14 21:00:00 4.8 3 Nordeste 6 Nordeste 0 -- -- 93
2020-02-14 20:00:00 6.1 3 Nordeste 7 Nordeste 0 -- -- 89
2020-02-14 19:00:00 8.2 3 Sudeste 10 Sur 0 -- -- 81
2020-02-14 18:00:00 11 5 Sur 12 Sur 0 -- -- 75
2020-02-14 17:00:00 12 4 Sudoeste 14 Norte 0 -- -- 73
2020-02-14 16:00:00 12.4 5 Oeste 14 Noroeste 0 -- -- 73
2020-02-14 15:00:00 13.5 6 Noroeste 14 Oeste 0 -- -- 69
2020-02-14 14:00:00 10.9 2 Oeste 8 Sudoeste 0 -- -- 76
2020-02-14 13:00:00 9.3 4 Oeste 13 Sudeste 0 -- -- 83
2020-02-14 12:00:00 7.7 6 Sur 12 Sudoeste 0 -- -- 89
2020-02-14 11:00:00 6.9 3 Sur 9 Noroeste 0 -- -- 93
2020-02-14 10:00:00 6.3 5 Oeste 8 Noroeste 0 -- -- 96
2020-02-14 09:00:00 6.2 2 Sudoeste 8 Sur 0 -- -- 96
2020-02-14 08:00:00 6.2 7 Sur 12 Sur 0 -- -- 96
2020-02-14 07:00:00 6.5 4 Sur 9 Sur 0 -- -- 95
2020-02-14 06:00:00 6.7 4 Sur 16 Sudoeste 0 -- -- 96
2020-02-14 05:00:00 6.9 0 Calma 4 Noroeste 0 -- -- 97
2020-02-14 04:00:00 6.7 0 Calma 3 Sudeste 0 -- -- 96
2020-02-14 03:00:00 6.6 2 Este 4 Norte 0 -- -- 97
2020-02-14 02:00:00 6.3 3 Noroeste 8 Sudeste 0 -- -- 96
2020-02-14 01:00:00 6.2 3 Este 6 Este 0 -- -- 94
2020-02-14 00:00:00 7.6 0 Calma 5 Este 0 -- -- 90
2020-02-13 23:00:00 8.1 0 Calma 14 Oeste 0 -- -- 88
2020-02-13 22:00:00 9.3 9 Oeste 24 Oeste 0 -- -- 84
2020-02-13 21:00:00 10.2 10 Oeste 24 Oeste 0 -- -- 81
2020-02-13 20:00:00 10.5 14 Oeste 24 Oeste 0 -- -- 80
2020-02-13 19:00:00 11 6 Noroeste 19 Noroeste 0 -- -- 77
2020-02-13 18:00:00 11.5 9 Oeste 20 Sur 0 -- -- 74
2020-02-13 17:00:00 11.9 8 Sudoeste 21 Oeste 0 -- -- 72
2020-02-13 16:00:00 11.6 5 Sudoeste 22 Sudoeste 0 -- -- 74
2020-02-13 15:00:00 11.2 13 Oeste 34 Sudoeste 0 -- -- 74
2020-02-13 14:00:00 10.7 18 Oeste 33 Sudoeste 0 -- -- 78
2020-02-13 13:00:00 10.2 11 Sudoeste 31 Sur 0 -- -- 83
2020-02-13 12:00:00 9.3 7 Sudoeste 28 Sur 0 -- -- 88
2020-02-13 11:00:00 8.9 10 Sudoeste 32 Sur 0 -- -- 90
2020-02-13 10:00:00 8.4 21 Sudoeste 42 Sur 0 -- -- 91
2020-02-13 09:00:00 7.9 10 Sudoeste 27 Sudoeste 0 -- -- 94
2020-02-13 08:00:00 7.7 18 Sudoeste 38 Sur 0 -- -- 94
2020-02-13 07:00:00 7.9 12 Sudoeste 30 Oeste 0 -- -- 92
2020-02-13 06:00:00 8.2 4 Oeste 27 Sur 0 -- -- 91
2020-02-13 05:00:00 8.6 12 Sur 30 Sudeste 0 -- -- 89
2020-02-13 04:00:00 8.3 10 Sur 23 Sudoeste 0 -- -- 90
2020-02-13 03:00:00 7.7 7 Sur 31 Sur 0 -- -- 91
2020-02-13 02:00:00 7.7 11 Sudoeste 27 Sur 0 -- -- 89
2020-02-13 01:00:00 7.9 11 Sur 25 Sudoeste 0 -- -- 87
2020-02-13 00:00:00 7.2 14 Sudoeste 24 Sudoeste 0 -- -- 91
2020-02-12 23:00:00 4.2 3 Sudoeste 19 Sudoeste 0 -- -- 99
2020-02-12 22:00:00 3.5 4 Norte 17 Sudoeste 0 -- -- 97
2020-02-12 21:00:00 3.7 0 Calma 5 Este 0 -- -- 94
2020-02-12 20:00:00 5.1 0 Calma 5 Nordeste 0 -- -- 92
2020-02-12 19:00:00 6.8 0 Calma 6 Este 0 -- -- 88
2020-02-12 18:00:00 8.6 0 Calma 10 Sudeste 0 -- -- 84
2020-02-12 17:00:00 9.5 6 Sudeste 14 Sur 0 -- -- 78
2020-02-12 16:00:00 9.7 8 Sudoeste 17 Sudeste 0 -- -- 81
2020-02-12 15:00:00 8.6 4 Sudoeste 13 Oeste 0 -- -- 86
2020-02-12 14:00:00 7.7 3 Este 10 Nordeste 0 -- -- 91
2020-02-12 13:00:00 7.2 3 Sudeste 11 Este 0 -- -- 92
2020-02-12 12:00:00 7.2 5 Este 10 Este 0 -- -- 93
2020-02-12 11:00:00 6.3 4 Este 7 Nordeste 0 -- -- 98
2020-02-12 10:00:00 5.7 3 Nordeste 8 Este 0 -- -- 99
2020-02-12 09:00:00 5.4 0 Calma 4 Nordeste 0 -- -- 99
2020-02-12 08:00:00 5.1 0 Calma 4 Este 0 -- -- 98
2020-02-12 07:00:00 5.3 0 Calma 20 Nordeste 0 -- -- 98
2020-02-12 06:00:00 5.5 8 Nordeste 22 Nordeste 0 -- -- 99
2020-02-12 05:00:00 5.8 0 Calma 15 Nordeste 0 -- -- 100
2020-02-12 04:00:00 6 6 Nordeste 13 Nordeste 0 -- -- 99
2020-02-12 03:00:00 6.4 0 Calma 4 Este 0 -- -- 99
2020-02-12 02:00:00 6.4 0 Calma 6 Este 0 -- -- 99
2020-02-12 01:00:00 6.4 3 Este 10 Nordeste 0 -- -- 99
2020-02-12 00:00:00 6.7 2 Este 6 Este 0 -- -- 98
2020-02-11 23:00:00 6.6 0 Calma 5 Sur 0 -- -- 97
2020-02-11 22:00:00 6.7 4 Sur 6 Oeste 0.2 -- -- 96
2020-02-11 21:00:00 6.8 5 Nordeste 17 Nordeste 0 -- -- 94
2020-02-11 20:00:00 6.9 3 Oeste 17 Este 0 -- -- 96
2020-02-11 19:00:00 7.6 4 Nordeste 15 Este 0 -- -- 95
2020-02-11 18:00:00 8.9 4 Este 12 Norte 0 -- -- 89
2020-02-11 17:00:00 9.8 6 Noroeste 11 Norte 0 -- -- 80
2020-02-11 16:00:00 10.1 5 Noroeste 15 Oeste 0 -- -- 81
2020-02-11 15:00:00 10.5 9 Oeste 17 Oeste 0 -- -- 80
2020-02-11 14:00:00 10.1 8 Oeste 15 Oeste 0 -- -- 82
2020-02-11 13:00:00 10.2 8 Noroeste 15 Noroeste 0 -- -- 82
2020-02-11 12:00:00 9 9 Oeste 14 Sudoeste 0 -- -- 87
2020-02-11 11:00:00 7.9 2 Oeste 9 Noroeste 0 -- -- 93
2020-02-11 10:00:00 7.1 2 Noroeste 5 Noroeste 0 -- -- 95
2020-02-11 09:00:00 6.5 0 Calma 3 Norte 0 -- -- 95
2020-02-11 08:00:00 6.6 0 Calma 12 Sudoeste 0 -- -- 94
2020-02-11 07:00:00 6.9 6 Sur 14 Sudoeste 0 -- -- 94
2020-02-11 06:00:00 7.1 6 Sur 13 Sudeste 0 -- -- 94
2020-02-11 05:00:00 7.2 4 Sudoeste 14 Sudeste 0 -- -- 93
2020-02-11 04:00:00 7.4 4 Este 17 Oeste 0 -- -- 92
2020-02-11 03:00:00 7.8 8 Este 43 Sudoeste 0 -- -- 92
2020-02-11 02:00:00 8 12 Sur 28 Sudoeste 0 -- -- 92
2020-02-11 01:00:00 8.5 17 Sudoeste 35 Sudoeste 0 -- -- 91
2020-02-11 00:00:00 9.2 12 Sudoeste 32 Sudoeste 0 -- -- 89
2020-02-10 23:00:00 9.7 7 Sudoeste 33 Sudoeste 0 -- -- 86
2020-02-10 22:00:00 10.3 17 Sudoeste 39 Sudoeste 0 -- -- 86
2020-02-10 21:00:00 10.6 22 Sudoeste 42 Sur 0 -- -- 85
2020-02-10 20:00:00 11 18 Sudoeste 41 Sur 0 -- -- 82
2020-02-10 19:00:00 11.5 12 Sur 27 Sudoeste 0 -- -- 81
2020-02-10 18:00:00 11.8 14 Sudoeste 37 Sur 0 -- -- 80
2020-02-10 17:00:00 12.1 15 Sudoeste 46 Sur 0 -- -- 79
2020-02-10 16:00:00 12.6 19 Sudoeste 49 Sur 0 -- -- 78
2020-02-10 15:00:00 13.7 22 Sudoeste 45 Sur 0 -- -- 72
2020-02-10 14:00:00 13.6 16 Sudoeste 50 Sudoeste 0 -- -- 75
2020-02-10 13:00:00 12.6 26 Sudoeste 57 Sudoeste 0 -- -- 79
2020-02-10 12:00:00 11.4 30 Sudoeste 58 Sudoeste 0 -- -- 82
2020-02-10 11:00:00 10.3 25 Sudoeste 48 Sudoeste 0 -- -- 89
2020-02-10 10:00:00 9.7 15 Sudoeste 36 Oeste 0 -- -- 91
2020-02-10 09:00:00 9.3 11 Oeste 32 Sudoeste 0 -- -- 92
2020-02-10 08:00:00 9.1 12 Sudoeste 45 Sur 0 -- -- 92
2020-02-10 07:00:00 9.1 21 Sudoeste 43 Sudoeste 0 -- -- 93
2020-02-10 06:00:00 9 22 Sudoeste 48 Sudoeste 0 -- -- 93
2020-02-10 05:00:00 8.9 27 Sudoeste 50 Sudoeste 0 -- -- 93
2020-02-10 04:00:00 9 19 Sudoeste 39 Sur 0 -- -- 92
2020-02-10 03:00:00 9.2 18 Sudoeste 41 Sudoeste 0 -- -- 90
2020-02-10 02:00:00 9.1 20 Sudoeste 48 Sudoeste 0 -- -- 90
2020-02-10 01:00:00 9.1 28 Sudoeste 57 Sudoeste 0 -- -- 89
2020-02-10 00:00:00 9.2 32 Sudoeste 60 Sur 0 -- -- 88
2020-02-09 23:00:00 9.5 14 Sudoeste 35 Sur 0 -- -- 86
2020-02-09 22:00:00 9.5 11 Sudoeste 51 Sur 0 -- -- 85
2020-02-09 21:00:00 9.3 22 Sudoeste 45 Sudoeste 0 -- -- 86
2020-02-09 20:00:00 9.3 24 Sudoeste 53 Sudoeste 0 -- -- 85
2020-02-09 19:00:00 9.2 15 Sudoeste 31 Sur 0 -- -- 85
2020-02-09 18:00:00 9.1 11 Sudoeste 48 Sudoeste 0 -- -- 84
2020-02-09 17:00:00 9 20 Sudoeste 49 Sudoeste 0 -- -- 84
2020-02-09 16:00:00 9.3 17 Sudoeste 47 Sur 0 -- -- 82
2020-02-09 15:00:00 9.1 24 Sudoeste 52 Sudoeste 0 -- -- 82
2020-02-09 14:00:00 8.6 27 Sudoeste 48 Sur 0 -- -- 83
2020-02-09 13:00:00 8.6 19 Sudoeste 53 Sudoeste 0 -- -- 81
2020-02-09 12:00:00 8.1 10 Oeste 32 Oeste 0 -- -- 87
2020-02-09 11:00:00 7.5 15 Sudoeste 46 Sur 0 -- -- 90
2020-02-09 10:00:00 6.9 15 Sur 39 Sudoeste 0 -- -- 89
2020-02-09 09:00:00 5.7 12 Sudoeste 32 Oeste 0 -- -- 90
2020-02-09 08:00:00 5.4 13 Sudoeste 32 Sudoeste 0 -- -- 90
2020-02-09 07:00:00 5.5 21 Sudoeste 34 Sur 0 -- -- 88
2020-02-09 06:00:00 5.4 19 Sur 46 Sur 0 -- -- 87
2020-02-09 05:00:00 5.2 22 Sudoeste 36 Sur 0 -- -- 88
2020-02-09 04:00:00 5.2 17 Sudoeste 35 Sudoeste 0 -- -- 90
2020-02-09 03:00:00 5.3 21 Sudoeste 42 Sudoeste 0 -- -- 91
2020-02-09 02:00:00 5.4 13 Sudoeste 36 Sudoeste 0 -- -- 94
2020-02-09 01:00:00 5.4 16 Sudoeste 33 Sudoeste 0 -- -- 97
2020-02-09 00:00:00 5.2 12 Sudoeste 29 Sudoeste 0 -- -- 99
2020-02-08 23:00:00 5.1 0 Calma 4 Este 0 -- -- 99
2020-02-08 22:00:00 5 2 Sur 6 Este 0 -- -- 99
2020-02-08 21:00:00 5.2 3 Este 6 Este 0 -- -- 97
2020-02-08 20:00:00 5.9 2 Sur 6 Sur 0 -- -- 98
2020-02-08 19:00:00 6 2 Oeste 8 Este 0 -- -- 97
2020-02-08 18:00:00 6.3 3 Nordeste 11 Este 0 -- -- 96
2020-02-08 17:00:00 6.6 3 Este 9 Este 0 -- -- 97
2020-02-08 16:00:00 6.7 3 Este 8 Este 0 -- -- 96
2020-02-08 15:00:00 6.8 5 Sudeste 12 Este 0 -- -- 96
2020-02-08 14:00:00 6.9 4 Sur 11 Sudoeste 0.2 -- -- 95
2020-02-08 13:00:00 7.2 5 Sur 13 Sur 0.8 -- -- 97
2020-02-08 12:00:00 7.1 5 Sur 11 Sudoeste 0.2 -- -- 95
2020-02-08 11:00:00 6.8 6 Sudoeste 12 Sudoeste 0 -- -- 96
2020-02-08 10:00:00 6.6 6 Sudoeste 17 Sudoeste 0 -- -- 94
2020-02-08 09:00:00 6.6 11 Sudoeste 24 Sudoeste 0 -- -- 93
2020-02-08 08:00:00 6.1 8 Sudoeste 17 Noroeste 0 -- -- 93
2020-02-08 07:00:00 6.3 6 Sudoeste 16 Oeste 0 -- -- 90
2020-02-08 06:00:00 6.4 6 Oeste 28 Sudoeste 0 -- -- 88
2020-02-08 05:00:00 6.9 14 Sudoeste 29 Sudoeste 0 -- -- 86
2020-02-08 04:00:00 7.1 10 Sudoeste 30 Sur 0 -- -- 84
2020-02-08 03:00:00 7.2 12 Sur 24 Sur 0 -- -- 84
2020-02-08 02:00:00 7.5 10 Sur 23 Sur 0 -- -- 82
2020-02-08 01:00:00 7.3 15 Sudoeste 36 Sudoeste 0 -- -- 84
2020-02-08 00:00:00 7.3 20 Sudoeste 39 Sur 0 -- -- 83
2020-02-07 23:00:00 7.1 12 Sudoeste 33 Sudoeste 0 -- -- 82
2020-02-07 22:00:00 6.7 10 Sudoeste 22 Sur 0 -- -- 82
2020-02-07 21:00:00 6 6 Oeste 16 Sudoeste 0 -- -- 83
2020-02-07 20:00:00 7 9 Sur 22 Sur 0 -- -- 80
2020-02-07 19:00:00 7.9 6 Sudoeste 36 Sur 0 -- -- 75
2020-02-07 18:00:00 9 13 Sur 41 Sudoeste 0 -- -- 73
2020-02-07 17:00:00 10.2 16 Sudoeste 35 Sudoeste 0 -- -- 70
2020-02-07 16:00:00 10.1 13 Sur 34 Sur 0 -- -- 73
2020-02-07 15:00:00 10.5 10 Sur 25 Sur 0 -- -- 70
2020-02-07 14:00:00 10.3 9 Sur 24 Sudoeste 0 -- -- 72
2020-02-07 13:00:00 9.3 12 Sudoeste 25 Sur 0 -- -- 74
2020-02-07 12:00:00 8 13 Sudoeste 22 Sudoeste 0 -- -- 79
2020-02-07 11:00:00 6.9 3 Sudeste 16 Sudoeste 0 -- -- 83
2020-02-07 10:00:00 3.6 5 Este 12 Este 0 -- -- 97
2020-02-07 09:00:00 1 2 Sudoeste 8 Nordeste 0 -- -- 96
2020-02-07 08:00:00 1.4 4 Este 10 Noroeste 0 -- -- 94
2020-02-07 07:00:00 2.4 6 Sudeste 14 Este 0 -- -- 95
2020-02-07 06:00:00 0.7 0 Calma 10 Sudeste 0 -- -- 96
2020-02-07 05:00:00 0.1 2 Este 6 Norte 0 -- -- 97
2020-02-07 04:00:00 -0.1 0 Calma 4 Norte 0 -- -- 95
2020-02-07 03:00:00 0 0 Calma 6 Sudeste 0 -- -- 94
2020-02-07 02:00:00 0.1 0 Calma 4 Sudeste 0 -- -- 93
2020-02-07 01:00:00 0.5 3 Sudeste 5 Sudeste 0 -- -- 94
2020-02-07 00:00:00 1 2 Este 5 Nordeste 0 -- -- 92
2020-02-06 23:00:00 1.8 0 Calma 5 Sudeste 0 -- -- 91
2020-02-06 22:00:00 2.5 0 Calma 5 Nordeste 0 -- -- 89
2020-02-06 21:00:00 3.4 0 Calma 5 Sudeste 0 -- -- 87
2020-02-06 20:00:00 4.6 0 Calma 5 Este 0 -- -- 83
2020-02-06 19:00:00 6 4 Este 11 Este 0 -- -- 79
2020-02-06 18:00:00 7.8 6 Este 17 Sudoeste 0 -- -- 72
2020-02-06 17:00:00 10.9 8 Sudoeste 22 Sudoeste 0 -- -- 58
2020-02-06 16:00:00 11.5 13 Sur 24 Sur 0 -- -- 56
2020-02-06 15:00:00 11.3 13 Sudoeste 25 Sur 0 -- -- 57
2020-02-06 14:00:00 10.3 9 Sur 23 Sudoeste 0 -- -- 58
2020-02-06 13:00:00 9.3 8 Sur 24 Sur 0 -- -- 58
2020-02-06 12:00:00 8.3 12 Sudoeste 25 Sudoeste 0 -- -- 58
2020-02-06 11:00:00 6.8 5 Sur 19 Sudoeste 0 -- -- 64
2020-02-06 10:00:00 4.2 4 Este 13 Sudoeste 0 -- -- 73
2020-02-06 09:00:00 0.4 4 Este 10 Este 0 -- -- 86
2020-02-06 08:00:00 -1.1 2 Norte 9 Sudeste 0 -- -- 90
2020-02-06 07:00:00 -1.6 0 Calma 6 Nordeste 0 -- -- 92
2020-02-06 06:00:00 -1.2 2 Este 6 Este 0 -- -- 90
2020-02-06 05:00:00 -0.1 5 Este 11 Este 0 -- -- 89
2020-02-06 04:00:00 -2 0 Calma 5 Nordeste 0 -- -- 91
2020-02-06 03:00:00 -1.7 0 Calma 8 Nordeste 0 -- -- 91
2020-02-06 02:00:00 -1.6 0 Calma 5 Nordeste 0 -- -- 91
2020-02-06 01:00:00 -1.3 3 Nordeste 7 Nordeste 0 -- -- 93
2020-02-06 00:00:00 -1.1 4 Nordeste 6 Nordeste 0 -- -- 94
2020-02-05 23:00:00 -0.9 0 Calma 6 Nordeste 0 -- -- 93
2020-02-05 22:00:00 -0.6 2 Nordeste 6 Nordeste 0 -- -- 91
2020-02-05 21:00:00 -0.1 3 Nordeste 7 Nordeste 0 -- -- 90
2020-02-05 20:00:00 0.8 2 Este 5 Nordeste 0 -- -- 87
2020-02-05 19:00:00 2.8 0 Calma 7 Sudeste 0 -- -- 78
2020-02-05 18:00:00 5.8 6 Sudeste 16 Norte 0 -- -- 70
2020-02-05 17:00:00 7.1 6 Este 15 Este 0 -- -- 67
2020-02-05 16:00:00 8 6 Sudeste 18 Este 0 -- -- 58
2020-02-05 15:00:00 8.1 7 Este 23 Este 0 -- -- 56
2020-02-05 14:00:00 7.6 8 Este 19 Este 0 -- -- 55
2020-02-05 13:00:00 7 8 Este 19 Este 0 -- -- 58
2020-02-05 12:00:00 5.8 8 Sudeste 15 Sudeste 0 -- -- 72
2020-02-05 11:00:00 3.7 5 Sudeste 21 Sur 0 -- -- 80
2020-02-05 10:00:00 3.2 6 Este 18 Sudeste 0 -- -- 85
2020-02-05 09:00:00 2.5 6 Este 24 Sudeste 0 -- -- 89
2020-02-05 08:00:00 2.5 6 Sudeste 21 Este 0 -- -- 90
2020-02-05 07:00:00 2.5 4 Sudeste 13 Sur 0 -- -- 92
2020-02-05 06:00:00 2.7 4 Sudeste 19 Noroeste 0 -- -- 90
2020-02-05 05:00:00 2.6 6 Sudoeste 13 Oeste 0 -- -- 88
2020-02-05 04:00:00 2 6 Sur 21 Sudeste 0 -- -- 87
2020-02-05 03:00:00 2 2 Norte 10 Sudeste 0 -- -- 88
2020-02-05 02:00:00 2.9 6 Sudeste 13 Sudeste 0 -- -- 92
2020-02-05 01:00:00 3 2 Sudeste 17 Noroeste 0 -- -- 92
2020-02-05 00:00:00 2.8 9 Noroeste 29 Noroeste 0 -- -- 90
2020-02-04 23:00:00 3.2 13 Noroeste 30 Norte 0 -- -- 92
2020-02-04 22:00:00 3.6 12 Noroeste 27 Noroeste 0 -- -- 93
2020-02-04 21:00:00 3.9 6 Noroeste 19 Sudoeste 0 -- -- 95
2020-02-04 20:00:00 4.1 6 Oeste 24 Noroeste 0 -- -- 94
2020-02-04 19:00:00 4.7 8 Norte 26 Nordeste 0 -- -- 93
2020-02-04 18:00:00 5.4 8 Norte 26 Norte 0 -- -- 91
2020-02-04 12:00:00 8.9 10 Nordeste 22 Nordeste 0 -- -- 91
2020-02-04 11:00:00 9.4 8 Noroeste 19 Norte 0 -- -- 94
2020-02-04 10:00:00 8 3 Noroeste 16 Oeste 0 -- -- 97
2020-02-04 09:00:00 6.3 4 Norte 8 Norte 0 -- -- 98
2020-02-04 08:00:00 5.9 4 Nordeste 9 Este 0 -- -- 97
2020-02-04 07:00:00 6 0 Calma 6 Este 0 -- -- 96
2020-02-04 06:00:00 5.4 0 Calma 7 Este 0 -- -- 96
2020-02-04 05:00:00 5.2 2 Nordeste 6 Nordeste 0 -- -- 93
2020-02-04 04:00:00 6.3 3 Sudeste 6 Este 0 -- -- 92
2020-02-04 03:00:00 6.4 3 Este 5 Sudeste 0 -- -- 91
2020-02-04 02:00:00 7.8 3 Nordeste 8 Nordeste 0 -- -- 87
2020-02-04 01:00:00 7.3 4 Norte 10 Nordeste 0 -- -- 87
2020-02-04 00:00:00 7.1 3 Nordeste 8 Norte 0 -- -- 87
2020-02-03 23:00:00 9.4 5 Noroeste 25 Sudoeste 0 -- -- 77
2020-02-03 22:00:00 11.5 18 Sudoeste 34 Sudoeste 0 -- -- 69
2020-02-03 21:00:00 12.4 15 Sudoeste 31 Sur 0 -- -- 65
2020-02-03 20:00:00 12.4 6 Oeste 21 Sudoeste 0 -- -- 57
2020-02-03 19:00:00 13.6 14 Sudoeste 30 Sudoeste 0 -- -- 52
2020-02-03 18:00:00 15.1 12 Sudoeste 19 Sudoeste 0 -- -- 54
2020-02-03 17:00:00 18.6 6 Oeste 21 Sur 0 -- -- 43
2020-02-03 16:00:00 18.6 12 Sudoeste 31 Sudoeste 0 -- -- 49
2020-02-03 15:00:00 17.7 16 Sudoeste 36 Sur 0 -- -- 57
2020-02-03 14:00:00 17 6 Sudoeste 26 Sudoeste 0 -- -- 61
2020-02-03 13:00:00 16.1 7 Sudoeste 24 Sudoeste 0 -- -- 63
2020-02-03 12:00:00 14.4 18 Sudoeste 34 Sudoeste 0 -- -- 68
2020-02-03 11:00:00 12.4 6 Sudoeste 14 Sudoeste 0 -- -- 77
2020-02-03 10:00:00 6.7 0 Calma 6 Oeste 0 -- -- 99
2020-02-03 09:00:00 4.6 0 Calma 6 Este 0 -- -- 98
2020-02-03 08:00:00 4.6 3 Noroeste 6 Nordeste 0 -- -- 96
2020-02-03 07:00:00 5.4 0 Calma 5 Nordeste 0 -- -- 97
2020-02-03 06:00:00 6.3 3 Nordeste 5 Nordeste 0 -- -- 97
2020-02-03 05:00:00 7 0 Calma 13 Sur 0 -- -- 94
2020-02-03 04:00:00 8.9 8 Sudoeste 15 Sudoeste 0 -- -- 95
2020-02-03 03:00:00 9.8 5 Sudeste 13 Sur 0 -- -- 93
2020-02-03 02:00:00 9.3 4 Este 11 Este 0 -- -- 92
2020-02-03 01:00:00 9.5 3 Este 10 Sur 0 -- -- 90
2020-02-03 00:00:00 10.2 5 Nordeste 12 Este 0 -- -- 87
2020-02-02 23:00:00 10.6 5 Norte 19 Este 0 -- -- 86
2020-02-02 22:00:00 11.1 5 Este 18 Este 0 -- -- 84
2020-02-02 21:00:00 11.2 6 Nordeste 15 Norte 0 -- -- 85
2020-02-02 20:00:00 11.7 6 Sur 24 Sudoeste 0 -- -- 82
2020-02-02 19:00:00 12.5 6 Sur 22 Sudoeste 0 -- -- 81
2020-02-02 18:00:00 13.5 16 Sudoeste 49 Sur 0 -- -- 78
2020-02-02 17:00:00 14.7 17 Sudoeste 40 Sur 0 -- -- 74
2020-02-02 16:00:00 14.5 14 Sudoeste 53 Sudoeste 0 -- -- 75
2020-02-02 15:00:00 13.9 29 Sur 56 Sudoeste 0 -- -- 76
2020-02-02 14:00:00 13.8 20 Sudoeste 45 Sudoeste 0 -- -- 77
2020-02-02 13:00:00 12.7 16 Sudoeste 49 Sudoeste 0 -- -- 83
2020-02-02 12:00:00 12.2 27 Sudoeste 57 Sudoeste 0 -- -- 83
2020-02-02 11:00:00 11.4 28 Sudoeste 48 Sudoeste 0 -- -- 87
2020-02-02 10:00:00 10.8 13 Sudoeste 46 Sudoeste 0 -- -- 90
2020-02-02 09:00:00 10.6 27 Sudoeste 56 Sudoeste 0 -- -- 90
2020-02-02 08:00:00 10.3 22 Sudoeste 46 Sudoeste 0 -- -- 92
2020-02-02 07:00:00 10.4 24 Sudoeste 50 Sudoeste 0 -- -- 91
2020-02-02 06:00:00 10.4 28 Sudoeste 51 Sudoeste 0 -- -- 91
2020-02-02 05:00:00 10.5 26 Sudoeste 50 Sudoeste 0 -- -- 91
2020-02-02 04:00:00 10.8 14 Sudoeste 42 Sur 0 -- -- 91
2020-02-02 03:00:00 10.9 19 Sudoeste 38 Sudoeste 0 -- -- 90
2020-02-02 02:00:00 11.2 17 Sudoeste 33 Sudoeste 0 -- -- 89
2020-02-02 01:00:00 11.6 8 Sudoeste 33 Sur 0 -- -- 88
2020-02-02 00:00:00 11.9 11 Oeste 33 Sudoeste 0 -- -- 86
2020-02-01 23:00:00 12.3 11 Sudoeste 36 Oeste 0 -- -- 85
2020-02-01 22:00:00 12.3 14 Oeste 33 Oeste 0 -- -- 85
2020-02-01 21:00:00 12.3 20 Oeste 35 Sudoeste 0 -- -- 86
2020-02-01 20:00:00 12.6 14 Sudoeste 32 Oeste 0 -- -- 85
2020-02-01 19:00:00 12.7 15 Sudoeste 31 Sudoeste 0 -- -- 84
2020-02-01 18:00:00 13.2 10 Sur 26 Oeste 0 -- -- 80
2020-02-01 17:00:00 14.2 8 Oeste 31 Sudoeste 0 -- -- 75
2020-02-01 16:00:00 14.2 16 Oeste 29 Sur 0 -- -- 76
2020-02-01 15:00:00 14.1 3 Sur 26 Oeste 0 -- -- 77
2020-02-01 14:00:00 14 11 Oeste 25 Sudoeste 0 -- -- 79
2020-02-01 13:00:00 13.3 9 Sudoeste 30 Oeste 0 -- -- 81
2020-02-01 12:00:00 12.6 15 Oeste 28 Oeste 0 -- -- 84
2020-02-01 11:00:00 12.8 11 Sudoeste 26 Sudoeste 0 -- -- 85
2020-02-01 10:00:00 11.4 8 Oeste 21 Oeste 0 -- -- 92
2020-02-01 09:00:00 8.4 5 Oeste 12 Sudoeste 0 -- -- 98
2020-02-01 08:00:00 8.9 4 Este 6 Este 0 -- -- 97
2020-02-01 07:00:00 10 6 Oeste 22 Sudoeste 0 -- -- 95
2020-02-01 06:00:00 10.8 11 Oeste 33 Noroeste 0 -- -- 95
2020-02-01 05:00:00 10.6 12 Oeste 30 Noroeste 0 -- -- 96
2020-02-01 04:00:00 10.3 10 Oeste 24 Oeste 2 -- -- 97
2020-02-01 03:00:00 10.5 9 Oeste 28 Sudoeste 0.8 -- -- 95
2020-02-01 02:00:00 10.7 9 Sur 34 Sur 0 -- -- 90
2020-02-01 01:00:00 10.8 14 Sur 45 Sudoeste 0 -- -- 88
2020-02-01 00:00:00 10.7 17 Sudoeste 41 Sudoeste 0 -- -- 88
2020-01-31 23:00:00 10.7 17 Sudoeste 50 Sudoeste 0 -- -- 89
2020-01-31 22:00:00 10.6 22 Sur 46 Sur 0 -- -- 87
2020-01-31 21:00:00 10.3 19 Sudoeste 48 Sudoeste 0 -- -- 85
2020-01-31 20:00:00 10.2 23 Sudoeste 49 Sudoeste 0 -- -- 80
2020-01-31 19:00:00 10.5 21 Sudoeste 46 Sudoeste 0 -- -- 81
2020-01-31 18:00:00 10.8 26 Sudoeste 55 Sudoeste 0 -- -- 83
2020-01-31 17:00:00 11.6 26 Sudoeste 48 Sudoeste 0 -- -- 81
2020-01-31 16:00:00 11.9 12 Sudoeste 33 Sudoeste 0 -- -- 80
2020-01-31 15:00:00 12.1 15 Sur 44 Sudoeste 0 -- -- 79
2020-01-31 14:00:00 12.8 15 Sudoeste 33 Sur 0 -- -- 77
2020-01-31 13:00:00 11.6 12 Sur 32 Sur 0 -- -- 82
2020-01-31 12:00:00 11.7 12 Sudoeste 33 Sur 0 -- -- 81
2020-01-31 11:00:00 10.5 15 Sudoeste 37 Sudoeste 0 -- -- 84
2020-01-31 10:00:00 9.4 16 Sudoeste 32 Sudoeste 0 -- -- 88
2020-01-31 09:00:00 8.1 0 Calma 10 Sur 0 -- -- 94
2020-01-31 08:00:00 8.2 2 Sur 10 Sur 0 -- -- 93
2020-01-31 07:00:00 8.2 7 Sudeste 14 Este 0 -- -- 94
2020-01-31 06:00:00 8.1 5 Nordeste 14 Este 0 -- -- 93
2020-01-31 05:00:00 8.2 4 Sudeste 21 Sudoeste 0 -- -- 95
2020-01-31 04:00:00 8 9 Sudoeste 20 Oeste 0 -- -- 94
2020-01-31 03:00:00 8.4 5 Sudeste 25 Oeste 0 -- -- 94
2020-01-31 02:00:00 8.2 6 Sudoeste 26 Sudoeste 0 -- -- 95
2020-01-31 01:00:00 8.1 10 Oeste 26 Sudoeste 0 -- -- 95
2020-01-31 00:00:00 8.1 15 Sudoeste 30 Sudoeste 0 -- -- 94
2020-01-30 23:00:00 7.9 14 Sudoeste 36 Sudoeste 0 -- -- 93
2020-01-30 22:00:00 8.2 16 Sudoeste 31 Sudoeste 0 -- -- 91
2020-01-30 21:00:00 8.2 11 Sudoeste 40 Sudoeste 0 -- -- 92
2020-01-30 20:00:00 8 9 Oeste 27 Sudoeste 0 -- -- 92
2020-01-30 19:00:00 8.1 16 Sudoeste 43 Sur 0 -- -- 91
2020-01-30 18:00:00 8.3 19 Sudoeste 37 Sudoeste 0 -- -- 88
2020-01-30 17:00:00 8.6 17 Sudoeste 48 Sudoeste 0 -- -- 86
2020-01-30 16:00:00 9.2 24 Sudoeste 56 Sudoeste 0 -- -- 81
2020-01-30 15:00:00 9.6 30 Sudoeste 55 Sudoeste 0 -- -- 78
2020-01-30 14:00:00 10 26 Sudoeste 56 Sudoeste 0 -- -- 76
2020-01-30 13:00:00 10.3 28 Sudoeste 62 Sur 0 -- -- 76
2020-01-30 12:00:00 9.4 26 Sudoeste 54 Sudoeste 0 -- -- 80
2020-01-30 11:00:00 8.2 25 Sudoeste 53 Sudoeste 0 -- -- 85
2020-01-30 10:00:00 8 22 Sudoeste 49 Sur 0 -- -- 85
2020-01-30 09:00:00 7.8 12 Sudoeste 45 Sudoeste 0 -- -- 89
2020-01-30 08:00:00 7.5 6 Sudoeste 43 Sur 0 -- -- 91
2020-01-30 07:00:00 7.8 12 Sudoeste 42 Sudeste 0 -- -- 89
2020-01-30 06:00:00 8.2 12 Sur 41 Sur 0 -- -- 91
2020-01-30 05:00:00 8.5 12 Sudeste 32 Sudoeste 0 -- -- 95
2020-01-30 04:00:00 8.5 8 Oeste 37 Sudoeste 0.2 -- -- 98
2020-01-30 03:00:00 8.8 12 Sur 35 Sur 0.4 -- -- 98
2020-01-30 02:00:00 8.9 9 Sudoeste 27 Oeste 0 -- -- 98
2020-01-30 01:00:00 9 11 Oeste 34 Noroeste 0.8 -- -- 98
2020-01-30 00:00:00 9.1 8 Sur 25 Sur 0.6 -- -- 97
2020-01-29 23:00:00 9.1 17 Sudoeste 41 Sur 0.2 -- -- 97
2020-01-29 22:00:00 9.1 16 Sudoeste 36 Sudoeste 0 -- -- 96
2020-01-29 21:00:00 9.1 14 Sudoeste 38 Sur 0 -- -- 96
2020-01-29 20:00:00 8.9 14 Sudoeste 39 Sur 0 -- -- 95
2020-01-29 19:00:00 8.7 15 Sudoeste 29 Sudoeste 0.2 -- -- 96
2020-01-29 18:00:00 8.5 9 Sudoeste 38 Sudoeste 0.6 -- -- 95
2020-01-29 17:00:00 8.7 9 Sur 26 Sudoeste 0.4 -- -- 94
2020-01-29 16:00:00 9.1 13 Sur 37 Sur 0.2 -- -- 90
2020-01-29 15:00:00 9.1 10 Noroeste 20 Oeste 1.4 -- -- 91
2020-01-29 14:00:00 10 7 Sur 28 Noroeste 0 -- -- 84
2020-01-29 13:00:00 9.9 14 Sur 31 Sudeste 0 -- -- 85
2020-01-29 12:00:00 10.2 14 Sudoeste 35 Sur 0 -- -- 83
2020-01-29 11:00:00 9.1 17 Sudoeste 32 Sudoeste 0 -- -- 87
2020-01-29 10:00:00 8.5 4 Oeste 19 Oeste 0 -- -- 89
2020-01-29 09:00:00 7.3 8 Sudoeste 16 Sudoeste 0 -- -- 93
2020-01-29 08:00:00 7.2 0 Calma 21 Oeste 0 -- -- 92
2020-01-29 07:00:00 7.1 5 Sudoeste 12 Sudoeste 0 -- -- 94
2020-01-29 06:00:00 7 0 Calma 13 Noroeste 0 -- -- 95
2020-01-29 05:00:00 6.9 0 Calma 9 Sudoeste 0 -- -- 94
2020-01-29 04:00:00 7 2 Oeste 11 Sudoeste 0 -- -- 94
2020-01-29 03:00:00 6.9 4 Oeste 12 Oeste 0 -- -- 95
2020-01-29 02:00:00 6 3 Oeste 11 Noroeste 0 -- -- 96
2020-01-29 01:00:00 5.3 2 Norte 15 Sudoeste 0 -- -- 97
2020-01-29 00:00:00 3.9 6 Oeste 13 Sur 0 -- -- 97
2020-01-28 23:00:00 2.9 0 Calma 7 Norte 0 -- -- 94
2020-01-28 22:00:00 1.8 3 Nordeste 6 Este 0 -- -- 92
2020-01-28 21:00:00 2.5 3 Este 7 Nordeste 0 -- -- 89
2020-01-28 20:00:00 3.7 3 Nordeste 7 Este 0 -- -- 85
2020-01-28 19:00:00 5.1 4 Este 14 Oeste 0 -- -- 79
2020-01-28 18:00:00 7.8 7 Oeste 15 Sudoeste 0 -- -- 69
2020-01-28 17:00:00 10.6 8 Sudoeste 24 Oeste 0 -- -- 59
2020-01-28 16:00:00 11.8 15 Oeste 27 Oeste 0 -- -- 52
2020-01-28 15:00:00 12 11 Oeste 28 Sudoeste 0 -- -- 54
2020-01-28 14:00:00 10.6 14 Sudoeste 30 Oeste 0 -- -- 58
2020-01-28 13:00:00 10.3 10 Sudoeste 28 Sudoeste 0 -- -- 63
2020-01-28 12:00:00 9.3 9 Oeste 24 Oeste 0 -- -- 64
2020-01-28 11:00:00 8.1 10 Oeste 24 Oeste 0 -- -- 71
2020-01-28 10:00:00 7 12 Oeste 24 Sudoeste 0 -- -- 81
2020-01-28 09:00:00 6.5 11 Sudoeste 29 Oeste 0 -- -- 84
2020-01-28 08:00:00 7 15 Oeste 34 Oeste 0 -- -- 85
2020-01-28 07:00:00 7.4 18 Oeste 36 Sudoeste 0 -- -- 84
2020-01-28 06:00:00 7.6 12 Oeste 39 Oeste 0 -- -- 84
2020-01-28 05:00:00 7.5 13 Noroeste 34 Noroeste 0 -- -- 85
2020-01-28 04:00:00 7.8 13 Noroeste 37 Oeste 0 -- -- 88
2020-01-28 03:00:00 7.6 15 Noroeste 33 Oeste 0 -- -- 92
2020-01-28 02:00:00 7.4 16 Noroeste 43 Noroeste 0 -- -- 94
2020-01-28 01:00:00 7.7 8 Oeste 36 Oeste 0 -- -- 90
2020-01-28 00:00:00 7.7 17 Oeste 44 Oeste 0 -- -- 88
2020-01-27 23:00:00 7.7 14 Oeste 42 Oeste 0 -- -- 86
2020-01-27 22:00:00 7.5 12 Sur 42 Sur 0 -- -- 90
2020-01-27 21:00:00 7.8 13 Sur 38 Sur 0 -- -- 92
2020-01-27 20:00:00 8 9 Sur 39 Noroeste 0 -- -- 90
2020-01-27 19:00:00 8.3 16 Oeste 44 Oeste 0 -- -- 85
2020-01-27 18:00:00 8.1 14 Noroeste 40 Noroeste 0 -- -- 84
2020-01-27 17:00:00 7.5 11 Oeste 46 Sudoeste 0 -- -- 92
2020-01-27 16:00:00 6.8 10 Sudoeste 39 Sudoeste 0 -- -- 94
2020-01-27 15:00:00 6.2 15 Sudoeste 43 Sudoeste 0 -- -- 95
2020-01-27 14:00:00 5.6 16 Sur 40 Sur 0 -- -- 94
2020-01-27 13:00:00 5.6 19 Sur 46 Sur 0 -- -- 90
2020-01-27 12:00:00 5.4 18 Sudoeste 50 Sur 0 -- -- 90
2020-01-27 11:00:00 5.5 24 Sudoeste 53 Sur 0 -- -- 89
2020-01-27 10:00:00 5.1 15 Sur 51 Sur 0 -- -- 88
2020-01-27 09:00:00 4.9 15 Sudeste 38 Sudoeste 0 -- -- 86
2020-01-27 08:00:00 5.1 27 Sudoeste 54 Sudoeste 0 -- -- 86
2020-01-27 07:00:00 5.1 20 Sudoeste 48 Sudoeste 0 -- -- 88
2020-01-27 06:00:00 5.3 15 Sudoeste 46 Sudoeste 0 -- -- 85
2020-01-27 05:00:00 5.3 8 Noroeste 59 Noroeste 0 -- -- 86
2020-01-27 04:00:00 5 11 Sudoeste 45 Sur 0 -- -- 87
2020-01-27 03:00:00 5 14 Sur 41 Sur 0 -- -- 87
2020-01-27 02:00:00 4.8 19 Sudoeste 53 Sudoeste 0 -- -- 86
2020-01-27 01:00:00 4.4 31 Sudoeste 55 Sudoeste 0 -- -- 87
2020-01-27 00:00:00 4.1 26 Sudoeste 57 Sudoeste 0 -- -- 87
2020-01-26 23:00:00 3.6 29 Sudoeste 55 Sudoeste 0 -- -- 88
2020-01-26 22:00:00 3 25 Sudoeste 57 Sudoeste 0 -- -- 91
2020-01-26 21:00:00 2.7 26 Sudoeste 51 Sudoeste 0 -- -- 89
2020-01-26 20:00:00 2.9 25 Sudoeste 46 Sudoeste 0 -- -- 90
2020-01-26 19:00:00 3 23 Sudoeste 49 Sudoeste 0 -- -- 89
2020-01-26 18:00:00 3.5 19 Sudoeste 40 Sudoeste 0 -- -- 87
2020-01-26 17:00:00 5 14 Sudoeste 41 Sur 0 -- -- 82
2020-01-26 16:00:00 5.6 16 Sudoeste 35 Sur 0 -- -- 84
2020-01-26 15:00:00 5.2 13 Sudoeste 28 Sudoeste 0 -- -- 88
2020-01-26 14:00:00 5.8 13 Sudoeste 26 Sudoeste 0 -- -- 88
2020-01-26 13:00:00 5.4 9 Sudoeste 17 Sur 0 -- -- 92
2020-01-26 12:00:00 3.5 7 Sudoeste 21 Sudoeste 0 -- -- 99
2020-01-26 11:00:00 1.7 7 Sur 14 Sur 0 -- -- 100
2020-01-26 10:00:00 -0.4 2 Sudeste 5 Este 0 -- -- 100
2020-01-26 09:00:00 -2.2 0 Calma 3 Este 0 -- -- 99
2020-01-26 08:00:00 -1.6 0 Calma 5 Nordeste 0 -- -- 99
2020-01-26 07:00:00 -1.6 0 Calma 4 Este 0 -- -- 99
2020-01-26 06:00:00 -1.5 0 Calma 4 Este 0 -- -- 99
2020-01-26 05:00:00 -0.9 2 Nordeste 5 Oeste 0 -- -- 99
2020-01-26 04:00:00 -0.6 0 Calma 4 Este 0 -- -- 98
2020-01-26 03:00:00 -0.1 0 Calma 5 Noroeste 0 -- -- 97
2020-01-26 02:00:00 1.6 0 Calma 5 Este 0 -- -- 97
2020-01-26 01:00:00 2.8 0 Calma 4 Nordeste 0 -- -- 98
2020-01-26 00:00:00 3.3 0 Calma 4 Norte 0 -- -- 98
2020-01-25 23:00:00 3.7 0 Calma 4 Norte 0.2 -- -- 98
2020-01-25 22:00:00 4 0 Calma 4 Sudeste 0.4 -- -- 98
2020-01-25 21:00:00 4.2 0 Calma 5 Norte 1.6 -- -- 98
2020-01-25 20:00:00 4.4 0 Calma 4 Nordeste 0 -- -- 96
2020-01-25 19:00:00 4.6 3 Sur 10 Sur 0 -- -- 95
2020-01-25 18:00:00 5 5 Sur 10 Sudoeste 0 -- -- 94
2020-01-25 17:00:00 5.7 4 Sur 12 Sudoeste 0 -- -- 92
2020-01-25 16:00:00 6 5 Sudoeste 12 Sudoeste 0 -- -- 93
2020-01-25 15:00:00 5.4 8 Sudoeste 14 Oeste 0 -- -- 94
2020-01-25 14:00:00 5.1 5 Sudoeste 14 Sudoeste 0 -- -- 95
2020-01-25 13:00:00 5.3 3 Sudoeste 10 Sur 0 -- -- 94
2020-01-25 12:00:00 4.4 4 Sudeste 12 Sur 0 -- -- 97
2020-01-25 11:00:00 3.9 0 Calma 4 Este 0 -- -- 100
2020-01-25 10:00:00 2.6 2 Noroeste 5 Noroeste 0 -- -- 100
2020-01-25 09:00:00 2.2 0 Calma 5 Norte 0 -- -- 100
2020-01-25 08:00:00 2 0 Calma 4 Norte 0 -- -- 100
2020-01-25 07:00:00 1.8 0 Calma 4 Este 0 -- -- 100
2020-01-25 06:00:00 1.8 0 Calma 5 Nordeste 0 -- -- 100
2020-01-25 05:00:00 2.1 0 Calma 4 Este 0 -- -- 99
2020-01-25 04:00:00 2.8 0 Calma 5 Este 0 -- -- 99
2020-01-25 03:00:00 3 3 Sudeste 8 Este 0 -- -- 100
2020-01-25 02:00:00 2.9 0 Calma 8 Este 0 -- -- 100
2020-01-25 01:00:00 2.9 2 Sudeste 4 Sudeste 0 -- -- 99
2020-01-25 00:00:00 3.1 0 Calma 8 Sur 0 -- -- 99
2020-01-24 23:00:00 3 2 Sudoeste 6 Sudoeste 0 -- -- 99
2020-01-24 22:00:00 2.9 0 Calma 3 Sur 0 -- -- 99
2020-01-24 21:00:00 3.2 0 Calma 5 Este 0 -- -- 99
2020-01-24 20:00:00 3.2 0 Calma 8 Este 0 -- -- 98
2020-01-24 19:00:00 3.6 3 Este 8 Este 0 -- -- 97
2020-01-24 18:00:00 4.4 5 Este 10 Este 0 -- -- 93
2020-01-24 17:00:00 5.7 4 Sur 12 Sudoeste 0 -- -- 87
2020-01-24 16:00:00 5.5 5 Sur 14 Sudoeste 0 -- -- 87
2020-01-24 15:00:00 5.5 8 Sudoeste 17 Sur 0 -- -- 88
2020-01-24 14:00:00 5 5 Sudeste 13 Sudoeste 0 -- -- 92
2020-01-24 13:00:00 3.9 5 Sur 13 Sudoeste 0 -- -- 96
2020-01-24 12:00:00 3.7 8 Sudoeste 19 Sudoeste 0 -- -- 96
2020-01-24 11:00:00 3.7 8 Sudoeste 21 Sudoeste 0 -- -- 98
2020-01-24 10:00:00 2.7 5 Sudoeste 14 Sudoeste 0 -- -- 100
2020-01-24 09:00:00 1.9 6 Sur 13 Sudoeste 0 -- -- 100
2020-01-24 08:00:00 2.1 2 Noroeste 14 Sudoeste 0 -- -- 100
2020-01-24 07:00:00 2.2 5 Sudoeste 12 Sudoeste 0 -- -- 100
2020-01-24 06:00:00 1.8 3 Sudeste 8 Sudeste 0 -- -- 100
2020-01-24 05:00:00 1.7 2 Este 7 Sudoeste 0 -- -- 100
2020-01-24 04:00:00 1.4 0 Calma 4 Sudeste 0 -- -- 99
2020-01-24 03:00:00 1.6 3 Este 8 Sudeste 0 -- -- 99
2020-01-24 02:00:00 2.3 3 Este 9 Sur 0 -- -- 100
2020-01-24 01:00:00 1.1 4 Este 7 Sudeste 0 -- -- 99
2020-01-24 00:00:00 1.6 3 Este 7 Sudeste 0 -- -- 99
2020-01-23 23:00:00 1.6 4 Este 8 Sudeste 0 -- -- 100
2020-01-23 22:00:00 0.6 0 Calma 4 Nordeste 0 -- -- 98
2020-01-23 21:00:00 0.5 0 Calma 3 Este 0 -- -- 96
2020-01-23 20:00:00 1.3 2 Sur 5 Este 0 -- -- 95
2020-01-23 19:00:00 2.7 2 Nordeste 11 Sudeste 0 -- -- 94
2020-01-23 18:00:00 3.6 6 Este 14 Este 0 -- -- 93
2020-01-23 17:00:00 4.8 6 Este 14 Este 0 -- -- 91
2020-01-23 16:00:00 5.8 3 Sur 9 Sur 0 -- -- 86
2020-01-23 15:00:00 4.9 0 Calma 11 Sur 0 -- -- 88
2020-01-23 14:00:00 5 5 Sudoeste 9 Sur 0 -- -- 89
2020-01-23 13:00:00 4.1 0 Calma 10 Sur 0 -- -- 92
2020-01-23 12:00:00 3.8 3 Sur 8 Sudoeste 0 -- -- 97
2020-01-23 11:00:00 3 2 Sudoeste 5 Oeste 0 -- -- 100
2020-01-23 10:00:00 1.6 0 Calma 4 Nordeste 0 -- -- 100
2020-01-23 09:00:00 1.1 0 Calma 7 Sudeste 0 -- -- 100
2020-01-23 08:00:00 0.8 0 Calma 5 Nordeste 0 -- -- 100
2020-01-23 07:00:00 0.6 0 Calma 6 Sudeste 0 -- -- 100
2020-01-23 06:00:00 -0.2 0 Calma 6 Este 0 -- -- 100
2020-01-23 05:00:00 -0.7 2 Este 6 Este 0 -- -- 99
2020-01-23 04:00:00 -0.6 0 Calma 7 Este 0 -- -- 98
2020-01-23 03:00:00 0.3 0 Calma 5 Este 0 -- -- 98
2020-01-23 02:00:00 1.4 0 Calma 4 Este 0 -- -- 98
2020-01-23 01:00:00 1.7 0 Calma 4 Nordeste 0 -- -- 98
2020-01-23 00:00:00 1.8 0 Calma 4 Este 0 -- -- 98
2020-01-22 23:00:00 1.7 0 Calma 4 Sudeste 0 -- -- 97
2020-01-22 22:00:00 2.2 2 Este 5 Sudoeste 0 -- -- 96
2020-01-22 21:00:00 3.1 0 Calma 21 Este 0 -- -- 97
2020-01-22 20:00:00 3 4 Este 22 Nordeste 0 -- -- 97
2020-01-22 19:00:00 3.3 6 Nordeste 13 Este 0 -- -- 94
2020-01-22 18:00:00 4.6 5 Este 21 Este 0 -- -- 87
2020-01-22 17:00:00 6 4 Nordeste 10 Nordeste 0 -- -- 86
2020-01-22 16:00:00 6.5 3 Nordeste 10 Este 0 -- -- 83
2020-01-22 15:00:00 6 3 Norte 8 Este 0 -- -- 88
2020-01-22 14:00:00 5.8 3 Sudoeste 10 Sudeste 0 -- -- 86
2020-01-22 13:00:00 5.5 2 Sur 5 Oeste 0 -- -- 94
2020-01-22 12:00:00 4.2 0 Calma 11 Este 0 -- -- 98
2020-01-22 11:00:00 3.4 3 Este 6 Este 0 -- -- 100
2020-01-22 10:00:00 2.4 2 Oeste 4 Oeste 0 -- -- 100
2020-01-22 09:00:00 1.8 0 Calma 4 Sudeste 0 -- -- 100
2020-01-22 08:00:00 1.8 0 Calma 7 Norte 0 -- -- 100
2020-01-22 07:00:00 1.8 3 Sur 17 Nordeste 0 -- -- 100
2020-01-22 06:00:00 1.7 2 Nordeste 9 Este 0 -- -- 100
2020-01-22 05:00:00 1.7 4 Este 27 Sudeste 0 -- -- 100
2020-01-22 04:00:00 1.8 8 Este 25 Nordeste 0 -- -- 100
2020-01-22 03:00:00 1.8 5 Sudoeste 19 Norte 0 -- -- 100
2020-01-22 02:00:00 1.7 7 Sur 27 Norte 0 -- -- 100
2020-01-22 01:00:00 1.6 7 Noroeste 28 Nordeste 0 -- -- 100
2020-01-22 00:00:00 1.3 5 Oeste 29 Este 0 -- -- 100